createdAt,value
2019-01-18T00:02:09.443Z,11.90
2019-01-18T00:06:07.901Z,11.63
2019-01-18T00:10:10.013Z,12.90
2019-01-18T00:14:08.528Z,12.73
2019-01-18T00:18:07.006Z,13.87
2019-01-18T00:22:05.428Z,14.00
2019-01-18T00:26:03.871Z,15.17
2019-01-18T00:30:02.568Z,15.70
2019-01-18T00:34:01.105Z,15.33
2019-01-18T00:37:59.845Z,14.47
2019-01-18T00:41:58.293Z,14.80
2019-01-18T00:45:56.695Z,16.47
2019-01-18T00:49:55.117Z,12.83
2019-01-18T00:53:55.219Z,15.20
2019-01-18T00:57:53.644Z,15.93
2019-01-18T01:01:55.098Z,14.27
2019-01-18T01:05:53.536Z,13.47
2019-01-18T01:09:51.977Z,13.00
2019-01-18T01:13:50.451Z,14.13
2019-01-18T01:17:48.946Z,11.53
2019-01-18T01:21:52.109Z,12.13
2019-01-18T01:25:51.042Z,12.37
2019-01-18T01:29:49.468Z,13.63
2019-01-18T01:33:48.007Z,12.33
2019-01-18T01:37:46.417Z,12.87
2019-01-18T01:41:47.543Z,13.03
2019-01-18T01:45:45.974Z,12.77
2019-01-18T01:49:44.424Z,11.73
2019-01-18T01:53:42.924Z,11.30
2019-01-18T01:57:41.752Z,9.67
2019-01-18T02:01:40.120Z,9.73
2019-01-18T02:05:38.556Z,10.17
2019-01-18T02:09:37.314Z,9.23
2019-01-18T02:13:35.740Z,9.73
2019-01-18T02:17:36.865Z,10.57
2019-01-18T02:21:35.312Z,10.90
2019-01-18T02:25:34.066Z,10.97
2019-01-18T02:29:32.480Z,11.67
2019-01-18T02:33:31.249Z,11.77
2019-01-18T02:37:32.201Z,11.00
2019-01-18T02:41:30.617Z,12.13
2019-01-18T02:45:29.049Z,10.87
2019-01-18T02:49:27.734Z,11.63
2019-01-18T02:53:28.048Z,11.17
2019-01-18T02:57:26.449Z,11.07
2019-01-18T03:01:24.879Z,9.77
2019-01-18T03:05:25.554Z,8.43
2019-01-18T03:09:23.967Z,9.30
2019-01-18T03:13:25.379Z,9.27
2019-01-18T03:17:23.861Z,10.10
2019-01-18T03:21:22.263Z,8.67
2019-01-18T03:25:27.226Z,8.93
2019-01-18T03:29:25.621Z,7.67
2019-01-18T03:33:24.043Z,8.43
2019-01-18T03:37:22.468Z,8.67
2019-01-18T03:41:20.831Z,7.20
2019-01-18T03:45:20.408Z,8.03
2019-01-18T03:49:18.849Z,7.57
2019-01-18T03:53:17.616Z,5.87
2019-01-18T03:57:16.021Z,5.67
2019-01-18T04:01:14.437Z,6.47
2019-01-18T04:05:13.892Z,6.20
2019-01-18T04:09:12.690Z,6.43
2019-01-18T04:13:11.118Z,6.63
2019-01-18T04:17:09.512Z,6.27
2019-01-18T04:21:07.957Z,5.57
2019-01-18T04:25:09.654Z,6.03
2019-01-18T04:29:08.083Z,6.23
2019-01-18T04:33:16.638Z,6.87
2019-01-18T04:37:15.067Z,6.97
2019-01-18T04:41:13.449Z,6.47
2019-01-18T04:45:31.255Z,7.07
2019-01-18T04:49:29.622Z,7.30
2019-01-18T04:53:34.830Z,6.30
2019-01-18T04:57:33.222Z,5.90
2019-01-18T05:01:31.615Z,5.40
2019-01-18T05:05:30.030Z,6.30
2019-01-18T05:09:28.382Z,6.33
2019-01-18T05:13:26.771Z,6.40
2019-01-18T05:17:25.167Z,5.93
2019-01-18T05:21:23.566Z,6.53
2019-01-18T05:25:21.951Z,6.50
2019-01-18T05:29:21.151Z,7.10
2019-01-18T05:33:19.526Z,6.90
2019-01-18T05:37:17.910Z,7.30
2019-01-18T05:41:16.297Z,7.20
2019-01-18T05:45:19.989Z,7.57
2019-01-18T05:49:19.282Z,10.47
2019-01-18T05:53:18.022Z,6.73
2019-01-18T05:57:16.408Z,9.07
2019-01-18T06:01:14.793Z,9.93
2019-01-18T06:05:16.271Z,10.33
2019-01-18T06:09:14.661Z,9.73
2019-01-18T06:13:12.964Z,11.07
2019-01-18T06:17:11.356Z,10.93
2019-01-18T06:21:09.793Z,10.77
2019-01-18T06:25:08.199Z,12.13
2019-01-18T06:29:06.580Z,10.53
2019-01-18T06:33:05.527Z,11.47
2019-01-18T06:37:03.995Z,12.60
2019-01-18T06:41:04.018Z,10.93
2019-01-18T06:45:02.407Z,11.67
2019-01-18T06:49:03.109Z,10.60
2019-01-18T06:53:01.442Z,10.53
2019-01-18T06:57:00.156Z,10.70
2019-01-18T07:00:58.559Z,11.83
2019-01-18T07:04:56.937Z,12.17
2019-01-18T07:08:55.402Z,12.97
2019-01-18T07:12:53.779Z,12.53
2019-01-18T07:16:52.184Z,13.07
2019-01-18T07:20:50.573Z,12.87
2019-01-18T07:24:48.957Z,12.33
2019-01-18T07:28:47.321Z,12.37
2019-01-18T07:32:45.777Z,12.83
2019-01-18T07:36:44.143Z,12.97
2019-01-18T07:40:42.554Z,13.93
2019-01-18T07:44:40.959Z,13.00
2019-01-18T07:48:39.310Z,12.63
2019-01-18T07:52:39.340Z,14.73
2019-01-18T07:56:37.704Z,13.67
2019-01-18T08:00:36.147Z,14.00
2019-01-18T08:04:34.504Z,15.03
2019-01-18T08:08:33.757Z,14.37
2019-01-18T08:12:32.114Z,15.27
2019-01-18T08:16:30.511Z,14.20
2019-01-18T08:20:29.443Z,15.47
2019-01-18T08:24:30.198Z,16.07
2019-01-18T08:28:28.585Z,17.70
2019-01-18T08:32:26.974Z,17.80
2019-01-18T08:36:25.382Z,16.50
2019-01-18T08:40:26.937Z,17.17
2019-01-18T08:44:25.330Z,16.93
2019-01-18T08:48:24.079Z,18.17
2019-01-18T08:52:22.445Z,19.00
2019-01-18T08:56:20.841Z,16.50
2019-01-18T09:00:22.766Z,16.80
2019-01-18T09:04:21.145Z,17.67
2019-01-18T09:08:19.533Z,17.27
2019-01-18T09:12:17.976Z,17.23
2019-01-18T09:20:38.959Z,18.70
2019-01-18T09:24:37.354Z,16.87
2019-01-18T09:28:35.745Z,18.00
2019-01-18T09:32:34.173Z,17.63
2019-01-18T09:36:37.444Z,17.03
2019-01-18T09:40:35.829Z,18.07
2019-01-18T09:44:35.105Z,17.50
2019-01-18T09:48:33.833Z,17.33
2019-01-18T09:52:32.329Z,17.53
2019-01-18T09:56:30.693Z,16.77
2019-01-18T10:00:34.901Z,18.00
2019-01-18T10:04:33.269Z,17.47
2019-01-18T10:08:31.675Z,17.97
2019-01-18T10:12:30.081Z,15.27
2019-01-18T10:16:28.481Z,13.97
2019-01-18T10:20:26.866Z,15.67
2019-01-18T10:24:34.032Z,14.80
2019-01-18T10:28:34.685Z,17.77
2019-01-18T10:32:33.420Z,15.53
2019-01-18T10:36:34.325Z,15.93
2019-01-18T10:40:34.589Z,12.87
2019-01-18T10:44:32.956Z,11.53
2019-01-18T10:48:31.346Z,10.83
2019-01-18T10:52:31.406Z,11.63
2019-01-18T10:56:29.770Z,10.50
2019-01-18T11:00:30.313Z,13.60
2019-01-18T11:04:29.090Z,11.80
2019-01-18T11:08:27.861Z,11.17
2019-01-18T11:12:27.722Z,11.47
2019-01-18T11:16:26.094Z,9.63
2019-01-18T11:20:27.501Z,9.90
2019-01-18T11:24:25.895Z,10.87
2019-01-18T11:28:24.263Z,9.13
2019-01-18T11:32:22.666Z,7.73
2019-01-18T11:36:21.041Z,10.90
2019-01-18T11:40:27.572Z,9.77
2019-01-18T11:44:25.944Z,10.43
2019-01-18T11:48:24.321Z,12.07
2019-01-18T11:52:22.730Z,11.47
2019-01-18T11:56:21.180Z,11.93
2019-01-18T12:00:24.974Z,12.93
2019-01-18T12:04:23.325Z,10.37
2019-01-18T12:08:21.722Z,10.10
2019-01-18T12:12:20.107Z,8.37
2019-01-18T12:16:19.246Z,8.50
2019-01-18T12:20:20.890Z,7.50
2019-01-18T12:24:19.325Z,7.63
2019-01-18T12:28:17.745Z,9.37
2019-01-18T12:32:16.155Z,10.47
2019-01-18T12:36:14.561Z,10.00
2019-01-18T12:40:12.939Z,10.17
2019-01-18T12:44:11.272Z,10.80
2019-01-18T12:48:09.639Z,12.50
2019-01-18T12:52:08.183Z,12.13
2019-01-18T12:56:06.511Z,12.10
2019-01-18T13:00:25.728Z,12.53
2019-01-18T13:04:24.111Z,11.27
2019-01-18T13:08:24.399Z,12.73
2019-01-18T13:12:22.742Z,11.13
2019-01-18T13:16:25.600Z,9.63
2019-01-18T13:20:24.003Z,7.67
2019-01-18T13:24:22.472Z,7.43
2019-01-18T13:28:20.816Z,8.10
2019-01-18T13:32:19.145Z,7.33
2019-01-18T13:36:26.172Z,7.83
2019-01-18T13:40:24.480Z,7.00
2019-01-18T13:44:22.800Z,5.60
2019-01-18T13:48:24.091Z,5.60
2019-01-18T13:52:41.851Z,6.07
2019-01-18T13:56:40.230Z,4.73
2019-01-18T14:00:38.996Z,5.27
2019-01-18T14:04:41.248Z,4.83
2019-01-18T14:08:39.626Z,4.63
2019-01-18T14:12:43.056Z,4.27
2019-01-18T14:16:38.034Z,5.00
2019-01-18T14:20:36.375Z,4.30
2019-01-18T14:24:34.703Z,5.70
2019-01-18T14:28:33.080Z,4.03
2019-01-18T14:32:31.432Z,3.73
2019-01-18T14:36:29.741Z,3.50
2019-01-18T14:40:28.106Z,3.87
2019-01-18T14:44:26.391Z,4.37
2019-01-18T14:48:24.725Z,4.03
2019-01-18T14:52:23.125Z,3.83
2019-01-18T14:56:21.852Z,4.13
2019-01-18T15:00:23.855Z,5.43
2019-01-18T15:04:22.209Z,4.60
2019-01-18T15:08:24.215Z,3.40
2019-01-18T15:12:20.691Z,3.30
2019-01-18T15:16:18.964Z,3.53
2019-01-18T15:20:22.988Z,3.80
2019-01-18T15:24:21.351Z,3.67
2019-01-18T15:28:19.713Z,4.57
2019-01-18T15:32:18.164Z,5.63
2019-01-18T15:36:16.519Z,5.07
2019-01-18T15:40:23.556Z,6.43
2019-01-18T15:44:21.979Z,6.30
2019-01-18T15:48:20.279Z,6.33
2019-01-18T15:52:18.615Z,6.37
2019-01-18T15:56:17.332Z,8.13
2019-01-18T16:00:24.531Z,7.03
2019-01-18T16:04:22.940Z,6.93
2019-01-18T16:08:21.309Z,7.07
2019-01-18T16:12:19.642Z,8.33
2019-01-18T16:16:20.375Z,8.67
2019-01-18T16:20:24.877Z,10.03
2019-01-18T16:24:30.905Z,9.43
2019-01-18T16:28:29.277Z,9.63
2019-01-18T16:32:27.589Z,9.33
2019-01-18T16:36:25.995Z,10.77
2019-01-18T16:40:30.142Z,11.77
2019-01-18T16:44:28.527Z,10.27
2019-01-18T16:48:26.935Z,11.73
2019-01-18T16:52:25.342Z,14.37
2019-01-18T16:56:23.707Z,12.67
2019-01-18T17:00:40.520Z,13.23
2019-01-18T17:04:38.917Z,12.87
2019-01-18T17:08:37.282Z,11.90
2019-01-18T17:12:35.666Z,19.97
2019-01-18T17:16:34.931Z,28.63
2019-01-18T17:20:36.568Z,38.23
2019-01-18T17:24:37.393Z,14.10
2019-01-18T17:28:36.043Z,13.70
2019-01-18T17:32:34.437Z,14.07
2019-01-18T17:36:32.833Z,15.80
2019-01-18T17:40:34.466Z,15.03
2019-01-18T17:44:54.203Z,43.50
2019-01-18T17:49:25.946Z,44.73
2019-01-18T17:53:33.117Z,19.37
2019-01-18T17:57:34.747Z,14.87
2019-01-18T18:01:51.243Z,14.40
2019-01-18T18:06:04.559Z,12.43
2019-01-18T18:10:18.265Z,12.77
2019-01-18T18:14:32.239Z,17.40
2019-01-18T18:18:36.336Z,55.07
2019-01-18T18:22:55.545Z,18.40
2019-01-18T18:27:24.497Z,18.60
2019-01-18T18:31:35.054Z,19.17
2019-01-18T18:35:57.976Z,19.77
2019-01-18T18:40:25.147Z,21.90
2019-01-18T18:44:59.829Z,15.23
2019-01-18T18:49:10.282Z,33.80
2019-01-18T18:53:29.815Z,35.23
2019-01-18T18:57:39.693Z,25.47
2019-01-18T19:02:05.778Z,57.33
2019-01-18T19:06:40.680Z,68.93
2019-01-18T19:10:54.250Z,49.43
2019-01-18T19:15:04.611Z,27.27
2019-01-18T19:19:08.708Z,26.73
2019-01-18T19:23:10.372Z,15.33
2019-01-18T19:27:20.734Z,14.97
2019-01-18T19:31:37.102Z,19.70
2019-01-18T19:35:50.852Z,12.83
2019-01-18T19:39:58.215Z,13.83
2019-01-18T19:43:59.832Z,11.97
2019-01-18T19:48:08.730Z,11.97
2019-01-18T19:52:22.481Z,15.20
2019-01-18T19:56:24.160Z,24.87
2019-01-18T20:00:31.829Z,26.87
2019-01-18T20:04:52.528Z,37.43
2019-01-18T20:09:13.540Z,22.33
2019-01-18T20:13:29.939Z,24.60
2019-01-18T20:17:40.306Z,17.70
2019-01-18T20:21:53.760Z,13.57
2019-01-18T20:26:10.560Z,12.57
2019-01-18T20:30:17.778Z,12.10
2019-01-18T20:34:34.396Z,15.33
2019-01-18T20:38:54.737Z,14.70
2019-01-18T20:43:28.142Z,18.00
2019-01-18T20:47:48.290Z,13.77
2019-01-18T20:52:01.861Z,16.00
2019-01-18T20:56:26.349Z,45.13
2019-01-18T21:00:43.038Z,25.43
2019-01-18T21:04:50.689Z,18.07
2019-01-18T21:09:10.387Z,19.47
2019-01-18T21:13:17.995Z,21.80
2019-01-18T21:17:28.326Z,17.57
2019-01-18T21:21:44.805Z,14.17
2019-01-18T21:25:46.396Z,12.70
2019-01-18T21:30:18.294Z,12.93
2019-01-18T21:34:22.584Z,11.93
2019-01-18T21:38:46.861Z,13.67
2019-01-18T21:42:51.298Z,11.40
2019-01-18T21:47:07.723Z,12.67
2019-01-18T21:51:21.379Z,14.77
2019-01-18T21:55:45.035Z,14.10
2019-01-18T22:00:01.272Z,13.33
2019-01-18T22:04:03.033Z,14.33
2019-01-18T22:08:25.630Z,14.90
2019-01-18T22:12:39.155Z,14.97
2019-01-18T22:16:38.922Z,16.40
2019-01-18T22:20:57.236Z,15.57
2019-01-18T22:25:35.256Z,15.07
2019-01-18T22:30:03.797Z,17.63
2019-01-18T22:34:20.469Z,23.07
2019-01-18T22:38:27.989Z,32.23
2019-01-18T22:42:32.292Z,19.87
2019-01-18T22:46:50.237Z,25.10
2019-01-18T22:51:21.848Z,27.33
2019-01-18T22:55:40.641Z,20.30
2019-01-18T22:59:58.368Z,23.10
2019-01-18T23:04:27.148Z,33.73
2019-01-18T23:08:43.698Z,20.17
2019-01-18T23:13:00.332Z,25.63
2019-01-18T23:17:10.685Z,27.63
2019-01-18T23:21:33.108Z,24.63
2019-01-18T23:25:47.291Z,23.73
2019-01-18T23:29:48.933Z,19.43
2019-01-18T23:33:50.533Z,16.83
2019-01-18T23:38:00.672Z,15.40
2019-01-18T23:42:17.405Z,17.03
2019-01-18T23:46:38.930Z,17.23
2019-01-18T23:50:49.085Z,16.63
2019-01-18T23:54:56.206Z,18.93
2019-01-18T23:59:03.856Z,16.47
